sensor_id;sensor_type;location;lat;lon;timestamp;pressure;altitude;pressure_sealevel;temperature;humidity
19676;BME280;39539;52.202;9.876;2023-02-12T00:01:21;102791.06;;;7.49;100.00
19676;BME280;39539;52.202;9.876;2023-02-12T00:03:47;102795.13;;;7.53;100.00
19676;BME280;39539;52.202;9.876;2023-02-12T00:06:12;102795.41;;;7.50;100.00
19676;BME280;39539;52.202;9.876;2023-02-12T00:08:38;102796.25;;;7.51;100.00
19676;BME280;39539;52.202;9.876;2023-02-12T00:11:24;102812.13;;;7.51;100.00
19676;BME280;39539;52.202;9.876;2023-02-12T00:13:50;102811.50;;;7.47;100.00
19676;BME280;39539;52.202;9.876;2023-02-12T00:16:18;102812.94;;;7.51;100.00
19676;BME280;39539;52.202;9.876;2023-02-12T00:18:44;102804.28;;;7.49;100.00
19676;BME280;39539;52.202;9.876;2023-02-12T00:21:10;102804.84;;;7.53;100.00
19676;BME280;39539;52.202;9.876;2023-02-12T00:23:37;102803.19;;;7.52;100.00
19676;BME280;39539;52.202;9.876;2023-02-12T00:26:11;102813.13;;;7.59;100.00
19676;BME280;39539;52.202;9.876;2023-02-12T00:28:39;102813.25;;;7.58;100.00
19676;BME280;39539;52.202;9.876;2023-02-12T00:31:09;102815.88;;;7.58;100.00
19676;BME280;39539;52.202;9.876;2023-02-12T00:33:35;102819.13;;;7.61;100.00
19676;BME280;39539;52.202;9.876;2023-02-12T00:36:01;102810.47;;;7.59;100.00
19676;BME280;39539;52.202;9.876;2023-02-12T00:38:26;102817.84;;;7.56;100.00
19676;BME280;39539;52.202;9.876;2023-02-12T00:40:52;102817.13;;;7.54;100.00
19676;BME280;39539;52.202;9.876;2023-02-12T00:43:17;102810.03;;;7.54;100.00
19676;BME280;39539;52.202;9.876;2023-02-12T00:45:45;102818.53;;;7.58;100.00
19676;BME280;39539;52.202;9.876;2023-02-12T00:48:12;102809.31;;;7.52;100.00
19676;BME280;39539;52.202;9.876;2023-02-12T00:50:37;102809.31;;;7.52;100.00
19676;BME280;39539;52.202;9.876;2023-02-12T00:53:05;102825.78;;;7.56;100.00
19676;BME280;39539;52.202;9.876;2023-02-12T00:55:30;102822.88;;;7.69;100.00
19676;BME280;39539;52.202;9.876;2023-02-12T00:57:57;102818.56;;;7.68;100.00
19676;BME280;39539;52.202;9.876;2023-02-12T01:00:22;102825.28;;;7.72;100.00
19676;BME280;39539;52.202;9.876;2023-02-12T01:02:48;102830.56;;;7.72;100.00
19676;BME280;39539;52.202;9.876;2023-02-12T01:05:13;102810.91;;;7.64;100.00
19676;BME280;39539;52.202;9.876;2023-02-12T01:07:39;102805.47;;;7.66;100.00
19676;BME280;39539;52.202;9.876;2023-02-12T01:10:06;102828.63;;;7.74;100.00
19676;BME280;39539;52.202;9.876;2023-02-12T01:12:32;102817.59;;;7.69;100.00
19676;BME280;39539;52.202;9.876;2023-02-12T01:14:57;102826.09;;;7.72;100.00
19676;BME280;39539;52.202;9.876;2023-02-12T01:17:22;102831.09;;;7.65;100.00
19676;BME280;39539;52.202;9.876;2023-02-12T01:19:48;102832.50;;;7.70;100.00
19676;BME280;39539;52.202;9.876;2023-02-12T01:22:13;102834.47;;;7.68;100.00
19676;BME280;39539;52.202;9.876;2023-02-12T01:24:38;102835.03;;;7.71;100.00
19676;BME280;39539;52.202;9.876;2023-02-12T01:27:04;102813.56;;;7.64;100.00
19676;BME280;39539;52.202;9.876;2023-02-12T01:29:29;102837.94;;;7.68;100.00
19676;BME280;39539;52.202;9.876;2023-02-12T01:31:54;102825.28;;;7.72;100.00
19676;BME280;39539;52.202;9.876;2023-02-12T01:34:20;102828.06;;;7.70;100.00
19676;BME280;39539;52.202;9.876;2023-02-12T01:36:45;102813.28;;;7.68;100.00
19676;BME280;39539;52.202;9.876;2023-02-12T01:39:11;102828.06;;;7.70;100.00
19676;BME280;39539;52.202;9.876;2023-02-12T01:41:39;102823.28;;;7.64;100.00
19676;BME280;39539;52.202;9.876;2023-02-12T01:44:21;102831.66;;;7.69;100.00
19676;BME280;39539;52.202;9.876;2023-02-12T01:46:49;102830.13;;;7.67;100.00
19676;BME280;39539;52.202;9.876;2023-02-12T01:49:26;102831.31;;;7.53;100.00
19676;BME280;39539;52.202;9.876;2023-02-12T01:52:19;102830.94;;;7.57;100.00
19676;BME280;39539;52.202;9.876;2023-02-12T01:54:49;102821.53;;;7.43;100.00
19676;BME280;39539;52.202;9.876;2023-02-12T01:57:16;102825.59;;;7.48;100.00
19676;BME280;39539;52.202;9.876;2023-02-12T01:59:44;102823.78;;;7.48;100.00
19676;BME280;39539;52.202;9.876;2023-02-12T02:02:12;102831.84;;;7.47;100.00
19676;BME280;39539;52.202;9.876;2023-02-12T02:04:41;102835.47;;;7.46;100.00
19676;BME280;39539;52.202;9.876;2023-02-12T02:07:08;102832.00;;;7.45;100.00
19676;BME280;39539;52.202;9.876;2023-02-12T02:09:36;102820.16;;;7.39;100.00
19676;BME280;39539;52.202;9.876;2023-02-12T02:12:06;102827.41;;;7.47;100.00
19676;BME280;39539;52.202;9.876;2023-02-12T02:14:54;102824.75;;;7.47;100.00
19676;BME280;39539;52.202;9.876;2023-02-12T02:32:06;102826.81;;;7.34;100.00
19676;BME280;39539;52.202;9.876;2023-02-12T02:34:39;102831.81;;;7.37;100.00
19676;BME280;39539;52.202;9.876;2023-02-12T02:40:12;102826.25;;;7.40;100.00
19676;BME280;39539;52.202;9.876;2023-02-12T02:43:34;102829.75;;;7.40;100.00
19676;BME280;39539;52.202;9.876;2023-02-12T02:45:42;102824.00;;;7.35;100.00
19676;BME280;39539;52.202;9.876;2023-02-12T02:48:20;102831.81;;;7.37;100.00
19676;BME280;39539;52.202;9.876;2023-02-12T02:50:53;102824.59;;;7.39;100.00
19676;BME280;39539;52.202;9.876;2023-02-12T02:53:29;102823.69;;;7.29;100.00
19676;BME280;39539;52.202;9.876;2023-02-12T02:55:59;102830.66;;;7.30;100.00
19676;BME280;39539;52.202;9.876;2023-02-12T02:58:31;102811.97;;;7.22;100.00
19676;BME280;39539;52.202;9.876;2023-02-12T03:03:33;102839.56;;;7.29;100.00
19676;BME280;39539;52.202;9.876;2023-02-12T03:06:06;102823.53;;;7.20;100.00
19676;BME280;39539;52.202;9.876;2023-02-12T03:08:37;102843.19;;;7.28;100.00
19676;BME280;39539;52.202;9.876;2023-02-12T03:11:18;102839.69;;;7.27;100.00
19676;BME280;39539;52.202;9.876;2023-02-12T03:13:49;102849.88;;;7.32;100.00
19676;BME280;39539;52.202;9.876;2023-02-12T03:16:23;102839.69;;;7.27;100.00
19676;BME280;39539;52.202;9.876;2023-02-12T03:18:57;102846.78;;;7.27;100.00
19676;BME280;39539;52.202;9.876;2023-02-12T03:21:32;102849.72;;;7.24;100.00
19676;BME280;39539;52.202;9.876;2023-02-12T03:24:30;102857.63;;;7.24;100.00
19676;BME280;39539;52.202;9.876;2023-02-12T03:27:03;102862.75;;;7.15;100.00
19676;BME280;39539;52.202;9.876;2023-02-12T03:29:31;102864.19;;;7.19;100.00
19676;BME280;39539;52.202;9.876;2023-02-12T03:37:53;102855.34;;;7.09;100.00
19676;BME280;39539;52.202;9.876;2023-02-12T03:40:36;102866.09;;;7.17;100.00
19676;BME280;39539;52.202;9.876;2023-02-12T03:43:09;102873.19;;;7.17;100.00
19676;BME280;39539;52.202;9.876;2023-02-12T03:45:54;102868.22;;;7.24;100.00
19676;BME280;39539;52.202;9.876;2023-02-12T03:48:26;102886.28;;;7.18;100.00
19676;BME280;39539;52.202;9.876;2023-02-12T03:51:16;102879.84;;;7.11;100.00
19676;BME280;39539;52.202;9.876;2023-02-12T03:53:43;102875.00;;;7.16;100.00
19676;BME280;39539;52.202;9.876;2023-02-12T03:56:12;102888.94;;;7.18;100.00
19676;BME280;39539;52.202;9.876;2023-02-12T03:58:41;102880.31;;;7.16;100.00
19676;BME280;39539;52.202;9.876;2023-02-12T04:01:08;102879.59;;;7.14;100.00
19676;BME280;39539;52.202;9.876;2023-02-12T04:03:34;102888.50;;;7.13;100.00
19676;BME280;39539;52.202;9.876;2023-02-12T04:05:59;102878.66;;;7.04;100.00
19676;BME280;39539;52.202;9.876;2023-02-12T04:08:26;102889.84;;;7.08;100.00
19676;BME280;39539;52.202;9.876;2023-02-12T04:16:25;102900.03;;;7.12;100.00
19676;BME280;39539;52.202;9.876;2023-02-12T04:18:54;102907.13;;;7.12;100.00
19676;BME280;39539;52.202;9.876;2023-02-12T04:32:24;102909.41;;;7.16;100.00
19676;BME280;39539;52.202;9.876;2023-02-12T04:38:14;102912.78;;;7.07;100.00
19676;BME280;39539;52.202;9.876;2023-02-12T04:40:42;102912.53;;;7.10;100.00
19676;BME280;39539;52.202;9.876;2023-02-12T04:43:10;102929.63;;;7.06;100.00
19676;BME280;39539;52.202;9.876;2023-02-12T04:45:36;102918.06;;;7.07;100.00
19676;BME280;39539;52.202;9.876;2023-02-12T04:48:03;102919.06;;;7.06;100.00
19676;BME280;39539;52.202;9.876;2023-02-12T04:50:41;102920.72;;;7.07;100.00
19676;BME280;39539;52.202;9.876;2023-02-12T04:53:08;102927.97;;;7.05;100.00
19676;BME280;39539;52.202;9.876;2023-02-12T04:55:34;102933.25;;;7.05;100.00
19676;BME280;39539;52.202;9.876;2023-02-12T04:57:59;102939.63;;;7.03;100.00
19676;BME280;39539;52.202;9.876;2023-02-12T05:00:25;102940.97;;;6.97;100.00
19676;BME280;39539;52.202;9.876;2023-02-12T05:02:52;102941.81;;;6.97;100.00
19676;BME280;39539;52.202;9.876;2023-02-12T05:05:17;102937.50;;;6.96;100.00
19676;BME280;39539;52.202;9.876;2023-02-12T05:07:44;102935.69;;;6.97;100.00
19676;BME280;39539;52.202;9.876;2023-02-12T05:10:09;102931.09;;;6.99;100.00
19676;BME280;39539;52.202;9.876;2023-02-12T05:12:35;102937.81;;;7.03;100.00
19676;BME280;39539;52.202;9.876;2023-02-12T05:15:00;102936.44;;;6.88;100.00
19676;BME280;39539;52.202;9.876;2023-02-12T05:17:26;102940.00;;;6.98;100.00
19676;BME280;39539;52.202;9.876;2023-02-12T05:19:51;102936.38;;;6.99;100.00
19676;BME280;39539;52.202;9.876;2023-02-12T05:22:16;102917.81;;;6.89;100.00
19676;BME280;39539;52.202;9.876;2023-02-12T05:24:42;102943.69;;;7.07;100.00
19676;BME280;39539;52.202;9.876;2023-02-12T05:27:08;102933.25;;;7.05;100.00
19676;BME280;39539;52.202;9.876;2023-02-12T05:29:34;102938.66;;;7.04;100.00
19676;BME280;39539;52.202;9.876;2023-02-12T05:31:59;102935.53;;;6.98;100.00
19676;BME280;39539;52.202;9.876;2023-02-12T05:34:25;102943.94;;;7.04;100.00
19676;BME280;39539;52.202;9.876;2023-02-12T05:36:50;102934.34;;;7.03;100.00
19676;BME280;39539;52.202;9.876;2023-02-12T05:39:15;102945.50;;;7.06;100.00
19676;BME280;39539;52.202;9.876;2023-02-12T05:41:41;102915.88;;;6.91;100.00
19676;BME280;39539;52.202;9.876;2023-02-12T05:44:06;102930.66;;;6.94;100.00
19676;BME280;39539;52.202;9.876;2023-02-12T05:46:32;102932.91;;;6.98;100.00
19676;BME280;39539;52.202;9.876;2023-02-12T05:48:57;102939.03;;;6.99;100.00
19676;BME280;39539;52.202;9.876;2023-02-12T05:51:25;102939.03;;;6.99;100.00
19676;BME280;39539;52.202;9.876;2023-02-12T05:53:55;102939.75;;;7.01;100.00
19676;BME280;39539;52.202;9.876;2023-02-12T05:56:22;102948.66;;;7.00;100.00
19676;BME280;39539;52.202;9.876;2023-02-12T05:58:52;102942.66;;;6.98;100.00
19676;BME280;39539;52.202;9.876;2023-02-12T06:01:35;102949.84;;;6.96;100.00
19676;BME280;39539;52.202;9.876;2023-02-12T06:04:03;102945.91;;;6.90;100.00
19676;BME280;39539;52.202;9.876;2023-02-12T06:06:29;102926.34;;;6.82;100.00
19676;BME280;39539;52.202;9.876;2023-02-12T06:08:56;102952.50;;;6.96;100.00
19676;BME280;39539;52.202;9.876;2023-02-12T06:11:22;102950.38;;;6.90;100.00
19676;BME280;39539;52.202;9.876;2023-02-12T06:13:48;102943.66;;;6.86;100.00
19676;BME280;39539;52.202;9.876;2023-02-12T06:16:19;102960.00;;;6.91;100.00
19676;BME280;39539;52.202;9.876;2023-02-12T06:18:45;102950.25;;;6.91;100.00
19676;BME280;39539;52.202;9.876;2023-02-12T06:21:10;102959.03;;;6.92;100.00
19676;BME280;39539;52.202;9.876;2023-02-12T06:23:36;102946.53;;;6.94;100.00
19676;BME280;39539;52.202;9.876;2023-02-12T06:26:01;102933.09;;;6.86;100.00
19676;BME280;39539;52.202;9.876;2023-02-12T06:28:27;102936.69;;;6.85;100.00
19676;BME280;39539;52.202;9.876;2023-02-12T06:30:52;102935.59;;;6.87;100.00
19676;BME280;39539;52.202;9.876;2023-02-12T06:33:17;102945.91;;;6.90;100.00
19676;BME280;39539;52.202;9.876;2023-02-12T06:35:43;102952.06;;;6.91;100.00
19676;BME280;39539;52.202;9.876;2023-02-12T06:38:09;102947.00;;;6.88;100.00
19676;BME280;39539;52.202;9.876;2023-02-12T06:40:35;102943.41;;;6.89;100.00
19676;BME280;39539;52.202;9.876;2023-02-12T06:43:00;102957.72;;;6.86;100.00
19676;BME280;39539;52.202;9.876;2023-02-12T06:45:25;102955.09;;;6.75;100.00
19676;BME280;39539;52.202;9.876;2023-02-12T06:47:51;102961.13;;;6.77;100.00
19676;BME280;39539;52.202;9.876;2023-02-12T06:50:17;102962.72;;;6.68;100.00
19676;BME280;39539;52.202;9.876;2023-02-12T06:52:42;102958.84;;;6.72;100.00
19676;BME280;39539;52.202;9.876;2023-02-12T06:55:08;102968.06;;;6.78;100.00
19676;BME280;39539;52.202;9.876;2023-02-12T06:57:33;102950.69;;;6.64;100.00
19676;BME280;39539;52.202;9.876;2023-02-12T07:00:00;102970.00;;;6.76;100.00
19676;BME280;39539;52.202;9.876;2023-02-12T07:02:25;102959.19;;;6.68;100.00
19676;BME280;39539;52.202;9.876;2023-02-12T07:04:50;102978.53;;;6.80;100.00
19676;BME280;39539;52.202;9.876;2023-02-12T07:07:16;102956.22;;;6.61;100.00
19676;BME280;39539;52.202;9.876;2023-02-12T07:09:42;102967.13;;;6.68;100.00
19676;BME280;39539;52.202;9.876;2023-02-12T07:12:08;102987.13;;;6.93;100.00
19676;BME280;39539;52.202;9.876;2023-02-12T07:14:33;102997.19;;;6.99;100.00
19676;BME280;39539;52.202;9.876;2023-02-12T07:16:58;103004.19;;;7.00;100.00
19676;BME280;39539;52.202;9.876;2023-02-12T07:19:28;102993.25;;;6.93;100.00
19676;BME280;39539;52.202;9.876;2023-02-12T07:21:54;103002.03;;;6.94;100.00
19676;BME280;39539;52.202;9.876;2023-02-12T07:24:20;102999.16;;;6.97;100.00
19676;BME280;39539;52.202;9.876;2023-02-12T07:26:46;102991.31;;;6.95;100.00
19676;BME280;39539;52.202;9.876;2023-02-12T07:29:11;102999.38;;;7.05;100.00
19676;BME280;39539;52.202;9.876;2023-02-12T07:31:37;103002.94;;;7.04;100.00
19676;BME280;39539;52.202;9.876;2023-02-12T07:34:04;103010.78;;;7.06;100.00
19676;BME280;39539;52.202;9.876;2023-02-12T07:36:31;103010.38;;;7.10;100.00
19676;BME280;39539;52.202;9.876;2023-02-12T07:38:57;103011.94;;;7.13;100.00
19676;BME280;39539;52.202;9.876;2023-02-12T07:41:25;103005.28;;;7.18;100.00
19676;BME280;39539;52.202;9.876;2023-02-12T07:43:56;103010.09;;;7.25;100.00
19676;BME280;39539;52.202;9.876;2023-02-12T07:46:27;103012.56;;;7.37;100.00
19676;BME280;39539;52.202;9.876;2023-02-12T07:48:57;103014.84;;;7.42;100.00
19676;BME280;39539;52.202;9.876;2023-02-12T07:51:23;103014.56;;;7.45;100.00
19676;BME280;39539;52.202;9.876;2023-02-12T07:53:49;103004.03;;;7.55;100.00
19676;BME280;39539;52.202;9.876;2023-02-12T07:56:17;103022.91;;;7.61;100.00
19676;BME280;39539;52.202;9.876;2023-02-12T07:58:44;103005.34;;;7.60;100.00
19676;BME280;39539;52.202;9.876;2023-02-12T08:03:37;103024.53;;;7.74;100.00
19676;BME280;39539;52.202;9.876;2023-02-12T08:06:21;103014.56;;;7.87;100.00
19676;BME280;39539;52.202;9.876;2023-02-12T08:08:49;103021.31;;;8.01;100.00
19676;BME280;39539;52.202;9.876;2023-02-12T08:11:15;103013.50;;;7.99;100.00
19676;BME280;39539;52.202;9.876;2023-02-12T08:13:42;103018.72;;;8.10;100.00
19676;BME280;39539;52.202;9.876;2023-02-12T08:16:10;103024.13;;;8.30;100.00
19676;BME280;39539;52.202;9.876;2023-02-12T08:18:36;103011.03;;;8.38;100.00
19676;BME280;39539;52.202;9.876;2023-02-12T08:21:03;103013.38;;;8.31;100.00
19676;BME280;39539;52.202;9.876;2023-02-12T08:23:29;103011.69;;;8.30;100.00
19676;BME280;39539;52.202;9.876;2023-02-12T08:26:25;103016.94;;;8.21;100.00
19676;BME280;39539;52.202;9.876;2023-02-12T08:28:54;102990.88;;;8.16;100.00
19676;BME280;39539;52.202;9.876;2023-02-12T08:31:22;103012.75;;;8.39;100.00
19676;BME280;39539;52.202;9.876;2023-02-12T08:33:50;103017.06;;;8.40;100.00
19676;BME280;39539;52.202;9.876;2023-02-12T08:36:18;103017.75;;;8.42;100.00
19676;BME280;39539;52.202;9.876;2023-02-12T08:38:46;103019.47;;;8.53;100.00
19676;BME280;39539;52.202;9.876;2023-02-12T08:41:15;103027.72;;;8.50;100.00
19676;BME280;39539;52.202;9.876;2023-02-12T08:43:41;103035.69;;;8.60;100.00
19676;BME280;39539;52.202;9.876;2023-02-12T08:46:16;103027.56;;;8.51;100.00
19676;BME280;39539;52.202;9.876;2023-02-12T08:48:42;103034.56;;;8.52;100.00
19676;BME280;39539;52.202;9.876;2023-02-12T08:51:18;103037.50;;;8.59;100.00
19676;BME280;39539;52.202;9.876;2023-02-12T08:53:46;103032.59;;;8.54;100.00
19676;BME280;39539;52.202;9.876;2023-02-12T08:56:13;103035.78;;;8.48;100.00
19676;BME280;39539;52.202;9.876;2023-02-12T08:58:39;103037.50;;;8.69;100.00
19676;BME280;39539;52.202;9.876;2023-02-12T09:01:13;103036.38;;;8.62;100.00
19676;BME280;39539;52.202;9.876;2023-02-12T09:03:38;103040.25;;;8.58;100.00
19676;BME280;39539;52.202;9.876;2023-02-12T09:06:05;103038.31;;;8.60;100.00
19676;BME280;39539;52.202;9.876;2023-02-12T09:08:31;103041.97;;;8.59;100.00
19676;BME280;39539;52.202;9.876;2023-02-12T09:10:57;103042.66;;;8.61;100.00
19676;BME280;39539;52.202;9.876;2023-02-12T09:13:23;103038.75;;;8.55;100.00
19676;BME280;39539;52.202;9.876;2023-02-12T09:15:49;103044.50;;;8.70;100.00
19676;BME280;39539;52.202;9.876;2023-02-12T09:18:16;103041.19;;;8.77;100.00
19676;BME280;39539;52.202;9.876;2023-02-12T09:20:43;103032.81;;;8.82;100.00
19676;BME280;39539;52.202;9.876;2023-02-12T09:23:12;103055.44;;;8.96;100.00
19676;BME280;39539;52.202;9.876;2023-02-12T09:25:42;103048.31;;;8.96;100.00
19676;BME280;39539;52.202;9.876;2023-02-12T09:28:09;103046.78;;;8.94;100.00
19676;BME280;39539;52.202;9.876;2023-02-12T09:30:35;103053.22;;;9.11;100.00
19676;BME280;39539;52.202;9.876;2023-02-12T09:33:02;103041.78;;;9.10;100.00
19676;BME280;39539;52.202;9.876;2023-02-12T09:35:27;103055.19;;;9.28;100.00
19676;BME280;39539;52.202;9.876;2023-02-12T09:37:53;103054.66;;;9.34;100.00
19676;BME280;39539;52.202;9.876;2023-02-12T09:40:30;103057.28;;;9.54;100.00
19676;BME280;39539;52.202;9.876;2023-02-12T09:51:07;103055.34;;;10.12;100.00
19676;BME280;39539;52.202;9.876;2023-02-12T09:53:36;103054.78;;;10.19;100.00
19676;BME280;39539;52.202;9.876;2023-02-12T09:56:11;103051.16;;;10.10;100.00
19676;BME280;39539;52.202;9.876;2023-02-12T09:58:43;103046.97;;;10.07;100.00
19676;BME280;39539;52.202;9.876;2023-02-12T10:01:12;103049.16;;;10.22;100.00
19676;BME280;39539;52.202;9.876;2023-02-12T10:03:39;103055.03;;;10.35;100.00
19676;BME280;39539;52.202;9.876;2023-02-12T10:06:12;103049.72;;;10.25;100.00
19676;BME280;39539;52.202;9.876;2023-02-12T10:14:49;103055.19;;;9.77;100.00
19676;BME280;39539;52.202;9.876;2023-02-12T10:20:43;103060.03;;;9.81;100.00
19676;BME280;39539;52.202;9.876;2023-02-12T10:26:25;103053.81;;;9.63;100.00
19676;BME280;39539;52.202;9.876;2023-02-12T10:28:53;103058.25;;;9.72;100.00
19676;BME280;39539;52.202;9.876;2023-02-12T10:31:35;103055.84;;;9.88;100.00
19676;BME280;39539;52.202;9.876;2023-02-12T10:34:25;103045.91;;;9.90;100.00
19676;BME280;39539;52.202;9.876;2023-02-12T10:36:58;103044.66;;;9.95;100.00
19676;BME280;39539;52.202;9.876;2023-02-12T10:39:35;103051.50;;;9.97;100.00
19676;BME280;39539;52.202;9.876;2023-02-12T10:42:11;103046.97;;;10.07;100.00
19676;BME280;39539;52.202;9.876;2023-02-12T10:44:43;103036.63;;;10.14;100.00
19676;BME280;39539;52.202;9.876;2023-02-12T10:47:18;103048.03;;;10.24;100.00
19676;BME280;39539;52.202;9.876;2023-02-12T11:07:50;103032.03;;;10.71;100.00
19676;BME280;39539;52.202;9.876;2023-02-12T11:10:24;103028.47;;;10.81;100.00
19676;BME280;39539;52.202;9.876;2023-02-12T11:13:29;103031.75;;;10.92;100.00
19676;BME280;39539;52.202;9.876;2023-02-12T11:15:57;103020.19;;;10.84;100.00
19676;BME280;39539;52.202;9.876;2023-02-12T11:18:30;103018.75;;;10.89;100.00
19676;BME280;39539;52.202;9.876;2023-02-12T11:23:56;103017.84;;;10.81;100.00
19676;BME280;39539;52.202;9.876;2023-02-12T11:26:29;103021.84;;;10.67;100.00
19676;BME280;39539;52.202;9.876;2023-02-12T11:29:20;103014.56;;;10.41;100.00
19676;BME280;39539;52.202;9.876;2023-02-12T11:32:06;103014.91;;;10.28;100.00
19676;BME280;39539;52.202;9.876;2023-02-12T11:34:37;103007.09;;;10.17;100.00
19676;BME280;39539;52.202;9.876;2023-02-12T11:37:14;103006.94;;;10.28;100.00
19676;BME280;39539;52.202;9.876;2023-02-12T11:39:47;103006.06;;;10.38;100.00
19676;BME280;39539;52.202;9.876;2023-02-12T11:42:21;102997.63;;;10.42;100.00
19676;BME280;39539;52.202;9.876;2023-02-12T11:44:56;102996.50;;;10.45;100.00
19676;BME280;39539;52.202;9.876;2023-02-12T11:47:39;102990.22;;;10.64;100.00
19676;BME280;39539;52.202;9.876;2023-02-12T11:50:30;102996.25;;;10.84;100.00
19676;BME280;39539;52.202;9.876;2023-02-12T11:53:02;102999.81;;;10.92;100.00
19676;BME280;39539;52.202;9.876;2023-02-12T11:55:34;102986.06;;;10.97;100.00
19676;BME280;39539;52.202;9.876;2023-02-12T11:58:13;102990.03;;;10.93;100.00
19676;BME280;39539;52.202;9.876;2023-02-12T12:00:45;102980.28;;;10.84;100.00
19676;BME280;39539;52.202;9.876;2023-02-12T12:04:20;102979.66;;;10.90;100.00
19676;BME280;39539;52.202;9.876;2023-02-12T12:06:21;102973.69;;;10.88;100.00
19676;BME280;39539;52.202;9.876;2023-02-12T12:09:41;102970.09;;;10.97;100.00
19676;BME280;39539;52.202;9.876;2023-02-12T12:15:31;102969.66;;;10.84;100.00
19676;BME280;39539;52.202;9.876;2023-02-12T12:21:24;102967.63;;;10.50;100.00
19676;BME280;39539;52.202;9.876;2023-02-12T12:24:02;102965.06;;;10.58;100.00
19676;BME280;39539;52.202;9.876;2023-02-12T12:26:33;102973.44;;;10.63;100.00
19676;BME280;39539;52.202;9.876;2023-02-12T12:31:35;102967.94;;;10.47;100.00
19676;BME280;39539;52.202;9.876;2023-02-12T12:34:34;102968.09;;;10.45;100.00
19676;BME280;39539;52.202;9.876;2023-02-12T12:45:56;102958.25;;;10.28;100.00
19676;BME280;39539;52.202;9.876;2023-02-12T12:52:13;102951.69;;;10.22;100.00
19676;BME280;39539;52.202;9.876;2023-02-12T13:09:25;102938.19;;;10.06;100.00
19676;BME280;39539;52.202;9.876;2023-02-12T13:15:26;102932.41;;;9.83;100.00
19676;BME280;39539;52.202;9.876;2023-02-12T13:24:02;102927.94;;;9.83;100.00
19676;BME280;39539;52.202;9.876;2023-02-12T13:26:56;102923.44;;;9.94;100.00
19676;BME280;39539;52.202;9.876;2023-02-12T13:32:39;102937.09;;;9.99;100.00
19676;BME280;39539;52.202;9.876;2023-02-12T13:35:14;102935.13;;;10.01;100.00
19676;BME280;39539;52.202;9.876;2023-02-12T13:37:42;102925.63;;;9.98;100.00
19676;BME280;39539;52.202;9.876;2023-02-12T13:40:22;102938.03;;;10.07;100.00
19676;BME280;39539;52.202;9.876;2023-02-12T13:57:08;102908.91;;;10.43;100.00
19676;BME280;39539;52.202;9.876;2023-02-12T14:04:42;102923.19;;;10.42;100.00
19676;BME280;39539;52.202;9.876;2023-02-12T14:07:12;102908.81;;;10.35;100.00
19676;BME280;39539;52.202;9.876;2023-02-12T14:09:41;102905.94;;;10.28;100.00
19676;BME280;39539;52.202;9.876;2023-02-12T14:12:14;102916.78;;;10.35;100.00
19676;BME280;39539;52.202;9.876;2023-02-12T14:14:50;102915.28;;;10.05;100.00
19676;BME280;39539;52.202;9.876;2023-02-12T14:20:23;102919.59;;;10.06;100.00
19676;BME280;39539;52.202;9.876;2023-02-12T14:22:59;102913.97;;;9.81;100.00
19676;BME280;39539;52.202;9.876;2023-02-12T14:25:45;102898.91;;;9.72;100.00
19676;BME280;39539;52.202;9.876;2023-02-12T14:28:33;102911.19;;;9.83;100.00
19676;BME280;39539;52.202;9.876;2023-02-12T14:33:51;102925.94;;;9.58;100.00
19676;BME280;39539;52.202;9.876;2023-02-12T14:41:41;102929.47;;;9.49;100.00
19676;BME280;39539;52.202;9.876;2023-02-12T14:47:49;102938.78;;;9.53;100.00
19676;BME280;39539;52.202;9.876;2023-02-12T14:50:24;102938.53;;;9.46;100.00
19676;BME280;39539;52.202;9.876;2023-02-12T14:52:58;102948.03;;;9.39;100.00
19676;BME280;39539;52.202;9.876;2023-02-12T14:55:31;102949.88;;;9.38;100.00
19676;BME280;39539;52.202;9.876;2023-02-12T14:58:13;102952.38;;;9.40;100.00
19676;BME280;39539;52.202;9.876;2023-02-12T15:00:46;102936.91;;;9.26;100.00
19676;BME280;39539;52.202;9.876;2023-02-12T15:08:17;102943.19;;;9.05;100.00
19676;BME280;39539;52.202;9.876;2023-02-12T15:10:50;102958.97;;;9.07;100.00
19676;BME280;39539;52.202;9.876;2023-02-12T15:13:24;102957.44;;;9.04;100.00
19676;BME280;39539;52.202;9.876;2023-02-12T15:16:14;102956.91;;;9.01;100.00
19676;BME280;39539;52.202;9.876;2023-02-12T15:21:23;102958.53;;;8.82;100.00
19676;BME280;39539;52.202;9.876;2023-02-12T15:24:11;102964.84;;;8.81;100.00
19676;BME280;39539;52.202;9.876;2023-02-12T15:26:47;102953.53;;;8.79;100.00
19676;BME280;39539;52.202;9.876;2023-02-12T15:32:03;102952.13;;;8.75;100.00
19676;BME280;39539;52.202;9.876;2023-02-12T15:34:32;102956.59;;;8.65;100.00
19676;BME280;39539;52.202;9.876;2023-02-12T15:37:02;102958.25;;;8.66;100.00
19676;BME280;39539;52.202;9.876;2023-02-12T15:39:48;102958.66;;;8.61;100.00
19676;BME280;39539;52.202;9.876;2023-02-12T15:42:36;102961.72;;;8.57;100.00
19676;BME280;39539;52.202;9.876;2023-02-12T15:45:19;102954.47;;;8.59;100.00
19676;BME280;39539;52.202;9.876;2023-02-12T15:47:58;102956.31;;;8.58;100.00
19676;BME280;39539;52.202;9.876;2023-02-12T15:50:24;102959.91;;;8.57;100.00
19676;BME280;39539;52.202;9.876;2023-02-12T15:52:50;102963.38;;;8.58;100.00
19676;BME280;39539;52.202;9.876;2023-02-12T15:55:19;102968.84;;;8.56;100.00
19676;BME280;39539;52.202;9.876;2023-02-12T15:57:50;102965.47;;;8.54;100.00
19676;BME280;39539;52.202;9.876;2023-02-12T16:00:40;102958.25;;;8.56;100.00
19676;BME280;39539;52.202;9.876;2023-02-12T16:03:31;102949.00;;;8.41;100.00
19676;BME280;39539;52.202;9.876;2023-02-12T16:06:02;102959.19;;;8.45;100.00
19676;BME280;39539;52.202;9.876;2023-02-12T16:08:31;102958.47;;;8.43;100.00
19676;BME280;39539;52.202;9.876;2023-02-12T16:10:57;102960.69;;;8.38;100.00